sensor_id;sensor_type;location;lat;lon;timestamp;temperature;humidity
38325;DHT22;24126;52.672;13.622;2023-04-03T00:00:21;6.50;58.80
38325;DHT22;24126;52.672;13.622;2023-04-03T00:02:48;6.50;58.80
38325;DHT22;24126;52.672;13.622;2023-04-03T00:05:15;6.50;58.80
38325;DHT22;24126;52.672;13.622;2023-04-03T00:07:42;6.50;58.90
38325;DHT22;24126;52.672;13.622;2023-04-03T00:10:09;6.50;58.90
38325;DHT22;24126;52.672;13.622;2023-04-03T00:12:36;6.50;58.90
38325;DHT22;24126;52.672;13.622;2023-04-03T00:15:03;6.40;58.90
38325;DHT22;24126;52.672;13.622;2023-04-03T00:17:31;6.40;58.90
38325;DHT22;24126;52.672;13.622;2023-04-03T00:19:58;6.40;58.90
38325;DHT22;24126;52.672;13.622;2023-04-03T00:22:25;6.40;58.90
38325;DHT22;24126;52.672;13.622;2023-04-03T00:24:52;6.40;58.90
38325;DHT22;24126;52.672;13.622;2023-04-03T00:27:19;6.40;58.90
38325;DHT22;24126;52.672;13.622;2023-04-03T00:29:46;6.40;59.00
38325;DHT22;24126;52.672;13.622;2023-04-03T00:32:13;6.40;59.10
38325;DHT22;24126;52.672;13.622;2023-04-03T00:34:40;6.30;59.00
38325;DHT22;24126;52.672;13.622;2023-04-03T00:37:07;6.30;59.00
38325;DHT22;24126;52.672;13.622;2023-04-03T00:39:35;6.30;59.10
38325;DHT22;24126;52.672;13.622;2023-04-03T00:42:02;6.30;59.10
38325;DHT22;24126;52.672;13.622;2023-04-03T00:47:02;6.30;59.10
38325;DHT22;24126;52.672;13.622;2023-04-03T00:49:30;6.30;59.30
38325;DHT22;24126;52.672;13.622;2023-04-03T00:51:57;6.20;59.20
38325;DHT22;24126;52.672;13.622;2023-04-03T00:54:25;6.20;59.30
38325;DHT22;24126;52.672;13.622;2023-04-03T00:56:53;6.20;59.20
38325;DHT22;24126;52.672;13.622;2023-04-03T00:59:21;6.20;59.30
38325;DHT22;24126;52.672;13.622;2023-04-03T01:01:55;6.20;59.40
38325;DHT22;24126;52.672;13.622;2023-04-03T01:06:54;6.10;59.40
38325;DHT22;24126;52.672;13.622;2023-04-03T01:09:22;6.10;59.40
38325;DHT22;24126;52.672;13.622;2023-04-03T01:11:49;6.10;59.50
38325;DHT22;24126;52.672;13.622;2023-04-03T01:14:16;6.00;59.60
38325;DHT22;24126;52.672;13.622;2023-04-03T01:16:53;6.00;59.80
38325;DHT22;24126;52.672;13.622;2023-04-03T01:19:21;6.00;59.70
38325;DHT22;24126;52.672;13.622;2023-04-03T01:22:34;6.00;59.80
38325;DHT22;24126;52.672;13.622;2023-04-03T01:24:39;6.00;59.90
38325;DHT22;24126;52.672;13.622;2023-04-03T01:27:09;5.90;59.90
38325;DHT22;24126;52.672;13.622;2023-04-03T01:29:37;6.00;59.90
38325;DHT22;24126;52.672;13.622;2023-04-03T01:32:05;6.00;59.80
38325;DHT22;24126;52.672;13.622;2023-04-03T01:34:32;5.90;59.80
38325;DHT22;24126;52.672;13.622;2023-04-03T01:37:00;5.90;59.80
38325;DHT22;24126;52.672;13.622;2023-04-03T01:39:27;5.90;59.80
38325;DHT22;24126;52.672;13.622;2023-04-03T01:41:54;5.90;59.90
38325;DHT22;24126;52.672;13.622;2023-04-03T01:44:29;5.80;60.00
38325;DHT22;24126;52.672;13.622;2023-04-03T01:46:56;5.80;60.00
38325;DHT22;24126;52.672;13.622;2023-04-03T01:49:25;5.80;60.00
38325;DHT22;24126;52.672;13.622;2023-04-03T01:51:53;5.80;60.10
38325;DHT22;24126;52.672;13.622;2023-04-03T01:54:21;5.80;60.00
38325;DHT22;24126;52.672;13.622;2023-04-03T01:56:48;5.80;60.20
38325;DHT22;24126;52.672;13.622;2023-04-03T01:59:15;5.70;60.10
38325;DHT22;24126;52.672;13.622;2023-04-03T02:01:43;5.70;60.10
38325;DHT22;24126;52.672;13.622;2023-04-03T02:04:11;5.70;60.20
38325;DHT22;24126;52.672;13.622;2023-04-03T02:06:38;5.70;60.30
38325;DHT22;24126;52.672;13.622;2023-04-03T02:09:06;5.70;60.50
38325;DHT22;24126;52.672;13.622;2023-04-03T02:11:33;5.60;60.40
38325;DHT22;24126;52.672;13.622;2023-04-03T02:14:00;5.60;60.60
38325;DHT22;24126;52.672;13.622;2023-04-03T02:16:27;5.60;60.70
38325;DHT22;24126;52.672;13.622;2023-04-03T02:18:54;5.60;60.70
38325;DHT22;24126;52.672;13.622;2023-04-03T02:21:21;5.50;60.80
38325;DHT22;24126;52.672;13.622;2023-04-03T02:23:49;5.50;60.90
38325;DHT22;24126;52.672;13.622;2023-04-03T02:26:16;5.50;61.10
38325;DHT22;24126;52.672;13.622;2023-04-03T02:28:45;5.50;60.90
38325;DHT22;24126;52.672;13.622;2023-04-03T02:31:12;5.50;61.10
38325;DHT22;24126;52.672;13.622;2023-04-03T02:33:41;5.50;61.10
38325;DHT22;24126;52.672;13.622;2023-04-03T02:36:09;5.50;61.20
38325;DHT22;24126;52.672;13.622;2023-04-03T02:38:39;5.50;61.30
38325;DHT22;24126;52.672;13.622;2023-04-03T02:41:07;5.50;61.30
38325;DHT22;24126;52.672;13.622;2023-04-03T02:43:35;5.40;61.20
38325;DHT22;24126;52.672;13.622;2023-04-03T02:46:04;5.40;61.30
38325;DHT22;24126;52.672;13.622;2023-04-03T02:48:31;5.40;61.40
38325;DHT22;24126;52.672;13.622;2023-04-03T02:50:58;5.40;61.40
38325;DHT22;24126;52.672;13.622;2023-04-03T02:53:25;5.40;61.50
38325;DHT22;24126;52.672;13.622;2023-04-03T02:55:52;5.30;61.40
38325;DHT22;24126;52.672;13.622;2023-04-03T02:58:19;5.30;61.40
38325;DHT22;24126;52.672;13.622;2023-04-03T03:00:47;5.30;61.50
38325;DHT22;24126;52.672;13.622;2023-04-03T03:03:14;5.30;61.50
38325;DHT22;24126;52.672;13.622;2023-04-03T03:05:41;5.30;61.60
38325;DHT22;24126;52.672;13.622;2023-04-03T03:08:08;5.30;61.70
38325;DHT22;24126;52.672;13.622;2023-04-03T03:10:35;5.30;61.80
38325;DHT22;24126;52.672;13.622;2023-04-03T03:13:02;5.20;61.70
38325;DHT22;24126;52.672;13.622;2023-04-03T03:15:29;5.30;61.80
38325;DHT22;24126;52.672;13.622;2023-04-03T03:17:56;5.20;61.80
38325;DHT22;24126;52.672;13.622;2023-04-03T03:20:23;5.20;61.90
38325;DHT22;24126;52.672;13.622;2023-04-03T03:22:50;5.20;61.90
38325;DHT22;24126;52.672;13.622;2023-04-03T03:25:17;5.20;61.90
38325;DHT22;24126;52.672;13.622;2023-04-03T03:27:44;5.20;62.10
38325;DHT22;24126;52.672;13.622;2023-04-03T03:30:12;5.20;62.10
38325;DHT22;24126;52.672;13.622;2023-04-03T03:32:39;5.20;62.20
38325;DHT22;24126;52.672;13.622;2023-04-03T03:35:06;5.10;62.10
38325;DHT22;24126;52.672;13.622;2023-04-03T03:37:34;5.10;62.00
38325;DHT22;24126;52.672;13.622;2023-04-03T03:40:01;5.10;62.10
38325;DHT22;24126;52.672;13.622;2023-04-03T03:42:29;5.10;62.10
38325;DHT22;24126;52.672;13.622;2023-04-03T03:44:56;5.10;62.40
38325;DHT22;24126;52.672;13.622;2023-04-03T03:47:23;5.10;62.40
38325;DHT22;24126;52.672;13.622;2023-04-03T03:49:51;5.20;62.50
38325;DHT22;24126;52.672;13.622;2023-04-03T03:52:18;5.20;62.40
38325;DHT22;24126;52.672;13.622;2023-04-03T03:54:45;5.20;62.30
38325;DHT22;24126;52.672;13.622;2023-04-03T03:57:12;5.20;62.40
38325;DHT22;24126;52.672;13.622;2023-04-03T03:59:44;5.10;62.30
38325;DHT22;24126;52.672;13.622;2023-04-03T04:02:11;5.10;62.40
38325;DHT22;24126;52.672;13.622;2023-04-03T04:04:38;5.10;62.40
38325;DHT22;24126;52.672;13.622;2023-04-03T04:07:05;5.10;62.60
38325;DHT22;24126;52.672;13.622;2023-04-03T04:09:33;5.10;62.60
38325;DHT22;24126;52.672;13.622;2023-04-03T04:12:00;5.10;62.60
38325;DHT22;24126;52.672;13.622;2023-04-03T04:14:28;5.10;62.70
38325;DHT22;24126;52.672;13.622;2023-04-03T04:16:56;5.00;62.70
38325;DHT22;24126;52.672;13.622;2023-04-03T04:19:25;5.00;62.70
38325;DHT22;24126;52.672;13.622;2023-04-03T04:21:52;5.00;62.80
38325;DHT22;24126;52.672;13.622;2023-04-03T04:24:19;5.00;62.80
38325;DHT22;24126;52.672;13.622;2023-04-03T04:26:50;5.00;62.80
38325;DHT22;24126;52.672;13.622;2023-04-03T04:29:18;5.00;62.80
38325;DHT22;24126;52.672;13.622;2023-04-03T04:31:48;5.10;63.00
38325;DHT22;24126;52.672;13.622;2023-04-03T04:34:16;5.00;63.00
38325;DHT22;24126;52.672;13.622;2023-04-03T04:36:43;5.00;63.00
38325;DHT22;24126;52.672;13.622;2023-04-03T04:39:10;5.00;63.10
38325;DHT22;24126;52.672;13.622;2023-04-03T04:41:37;5.00;63.10
38325;DHT22;24126;52.672;13.622;2023-04-03T04:44:05;5.00;63.10
38325;DHT22;24126;52.672;13.622;2023-04-03T04:46:33;5.00;63.30
38325;DHT22;24126;52.672;13.622;2023-04-03T04:49:00;5.00;63.20
38325;DHT22;24126;52.672;13.622;2023-04-03T04:51:29;5.00;63.20
38325;DHT22;24126;52.672;13.622;2023-04-03T04:53:56;5.00;63.20
38325;DHT22;24126;52.672;13.622;2023-04-03T04:56:24;5.00;63.20
38325;DHT22;24126;52.672;13.622;2023-04-03T04:58:53;5.10;63.30
38325;DHT22;24126;52.672;13.622;2023-04-03T05:01:23;5.10;63.30
38325;DHT22;24126;52.672;13.622;2023-04-03T05:04:02;5.10;63.30
38325;DHT22;24126;52.672;13.622;2023-04-03T05:06:29;5.10;63.20
38325;DHT22;24126;52.672;13.622;2023-04-03T05:08:58;5.10;63.20
38325;DHT22;24126;52.672;13.622;2023-04-03T05:11:26;5.20;63.20
38325;DHT22;24126;52.672;13.622;2023-04-03T05:13:53;5.20;63.30
38325;DHT22;24126;52.672;13.622;2023-04-03T05:16:22;5.20;63.30
38325;DHT22;24126;52.672;13.622;2023-04-03T05:18:49;5.30;63.50
38325;DHT22;24126;52.672;13.622;2023-04-03T05:21:19;5.30;63.40
38325;DHT22;24126;52.672;13.622;2023-04-03T05:23:49;5.40;63.20
38325;DHT22;24126;52.672;13.622;2023-04-03T05:26:17;5.50;63.00
38325;DHT22;24126;52.672;13.622;2023-04-03T05:28:46;5.50;62.90
38325;DHT22;24126;52.672;13.622;2023-04-03T05:31:13;5.70;63.20
38325;DHT22;24126;52.672;13.622;2023-04-03T05:33:41;6.10;62.60
38325;DHT22;24126;52.672;13.622;2023-04-03T05:36:14;6.70;61.90
38325;DHT22;24126;52.672;13.622;2023-04-03T05:38:45;7.30;61.10
38325;DHT22;24126;52.672;13.622;2023-04-03T05:41:12;8.10;60.20
38325;DHT22;24126;52.672;13.622;2023-04-03T05:43:40;8.90;59.00
38325;DHT22;24126;52.672;13.622;2023-04-03T05:46:10;9.90;57.30
38325;DHT22;24126;52.672;13.622;2023-04-03T05:48:37;11.20;55.00
38325;DHT22;24126;52.672;13.622;2023-04-03T05:51:05;12.40;52.80
38325;DHT22;24126;52.672;13.622;2023-04-03T05:53:33;13.90;50.00
38325;DHT22;24126;52.672;13.622;2023-04-03T05:56:03;15.50;46.80
38325;DHT22;24126;52.672;13.622;2023-04-03T05:58:35;16.90;43.30
38325;DHT22;24126;52.672;13.622;2023-04-03T06:01:02;17.60;40.80
38325;DHT22;24126;52.672;13.622;2023-04-03T06:03:29;17.80;40.30
38325;DHT22;24126;52.672;13.622;2023-04-03T06:05:57;18.50;39.30
38325;DHT22;24126;52.672;13.622;2023-04-03T06:08:24;19.80;37.60
38325;DHT22;24126;52.672;13.622;2023-04-03T06:10:51;21.50;35.00
38325;DHT22;24126;52.672;13.622;2023-04-03T06:13:18;23.20;32.00
38325;DHT22;24126;52.672;13.622;2023-04-03T06:15:46;24.80;29.10
38325;DHT22;24126;52.672;13.622;2023-04-03T06:18:14;26.20;27.40
38325;DHT22;24126;52.672;13.622;2023-04-03T06:20:41;27.30;26.00
38325;DHT22;24126;52.672;13.622;2023-04-03T06:23:09;28.30;24.50
38325;DHT22;24126;52.672;13.622;2023-04-03T06:25:36;29.00;23.50
38325;DHT22;24126;52.672;13.622;2023-04-03T06:28:03;29.50;22.50
38325;DHT22;24126;52.672;13.622;2023-04-03T06:30:30;29.90;21.90
38325;DHT22;24126;52.672;13.622;2023-04-03T06:32:57;30.00;21.50
38325;DHT22;24126;52.672;13.622;2023-04-03T06:35:25;29.50;21.10
38325;DHT22;24126;52.672;13.622;2023-04-03T06:37:53;28.70;21.20
38325;DHT22;24126;52.672;13.622;2023-04-03T06:40:22;27.70;21.60
38325;DHT22;24126;52.672;13.622;2023-04-03T06:42:49;26.80;22.40
38325;DHT22;24126;52.672;13.622;2023-04-03T06:45:18;25.80;23.20
38325;DHT22;24126;52.672;13.622;2023-04-03T06:47:45;24.70;23.90
38325;DHT22;24126;52.672;13.622;2023-04-03T06:50:12;23.50;24.90
38325;DHT22;24126;52.672;13.622;2023-04-03T06:52:41;22.40;26.10
38325;DHT22;24126;52.672;13.622;2023-04-03T06:55:08;21.30;27.30
38325;DHT22;24126;52.672;13.622;2023-04-03T06:57:36;20.30;28.60
38325;DHT22;24126;52.672;13.622;2023-04-03T07:00:04;19.30;29.30
38325;DHT22;24126;52.672;13.622;2023-04-03T07:02:31;18.40;30.10
38325;DHT22;24126;52.672;13.622;2023-04-03T07:04:58;17.50;31.40
38325;DHT22;24126;52.672;13.622;2023-04-03T07:07:25;16.70;33.50
38325;DHT22;24126;52.672;13.622;2023-04-03T07:09:52;16.10;33.70
38325;DHT22;24126;52.672;13.622;2023-04-03T07:12:20;15.70;35.50
38325;DHT22;24126;52.672;13.622;2023-04-03T07:14:47;15.40;35.40
38325;DHT22;24126;52.672;13.622;2023-04-03T07:17:14;15.10;36.00
38325;DHT22;24126;52.672;13.622;2023-04-03T07:19:41;14.90;35.90
38325;DHT22;24126;52.672;13.622;2023-04-03T07:22:08;14.60;36.30
38325;DHT22;24126;52.672;13.622;2023-04-03T07:24:36;14.40;36.70
38325;DHT22;24126;52.672;13.622;2023-04-03T07:27:03;14.20;37.80
38325;DHT22;24126;52.672;13.622;2023-04-03T07:29:31;14.00;37.90
38325;DHT22;24126;52.672;13.622;2023-04-03T07:31:58;13.80;37.50
38325;DHT22;24126;52.672;13.622;2023-04-03T07:34:25;13.60;37.40
38325;DHT22;24126;52.672;13.622;2023-04-03T07:36:52;13.30;37.30
38325;DHT22;24126;52.672;13.622;2023-04-03T07:39:20;13.00;37.70
38325;DHT22;24126;52.672;13.622;2023-04-03T07:41:47;12.50;38.10
38325;DHT22;24126;52.672;13.622;2023-04-03T07:44:14;12.20;38.60
38325;DHT22;24126;52.672;13.622;2023-04-03T07:46:41;11.80;38.90
38325;DHT22;24126;52.672;13.622;2023-04-03T07:49:09;11.50;39.90
38325;DHT22;24126;52.672;13.622;2023-04-03T07:51:36;11.30;40.30
38325;DHT22;24126;52.672;13.622;2023-04-03T07:54:03;11.20;40.80
38325;DHT22;24126;52.672;13.622;2023-04-03T07:56:30;11.10;40.90
38325;DHT22;24126;52.672;13.622;2023-04-03T07:58:57;11.00;41.00
38325;DHT22;24126;52.672;13.622;2023-04-03T08:01:24;10.90;41.60
38325;DHT22;24126;52.672;13.622;2023-04-03T08:03:51;10.80;41.70
38325;DHT22;24126;52.672;13.622;2023-04-03T08:06:18;10.70;41.60
38325;DHT22;24126;52.672;13.622;2023-04-03T08:08:45;10.50;41.90
38325;DHT22;24126;52.672;13.622;2023-04-03T08:11:13;10.40;42.00
38325;DHT22;24126;52.672;13.622;2023-04-03T08:13:40;10.30;41.80
38325;DHT22;24126;52.672;13.622;2023-04-03T08:16:09;10.10;42.10
38325;DHT22;24126;52.672;13.622;2023-04-03T08:18:36;10.00;42.30
38325;DHT22;24126;52.672;13.622;2023-04-03T08:21:05;10.00;42.10
38325;DHT22;24126;52.672;13.622;2023-04-03T08:23:32;9.80;41.80
38325;DHT22;24126;52.672;13.622;2023-04-03T08:26:04;9.70;42.30
38325;DHT22;24126;52.672;13.622;2023-04-03T08:28:32;9.70;42.30
38325;DHT22;24126;52.672;13.622;2023-04-03T08:31:02;9.70;42.60
38325;DHT22;24126;52.672;13.622;2023-04-03T08:33:30;9.80;42.70
38325;DHT22;24126;52.672;13.622;2023-04-03T08:35:57;10.00;43.50
38325;DHT22;24126;52.672;13.622;2023-04-03T08:38:24;10.40;43.10
38325;DHT22;24126;52.672;13.622;2023-04-03T08:41:02;10.90;42.20
38325;DHT22;24126;52.672;13.622;2023-04-03T08:43:41;11.40;40.20
38325;DHT22;24126;52.672;13.622;2023-04-03T08:46:13;11.80;39.70
38325;DHT22;24126;52.672;13.622;2023-04-03T08:48:41;12.20;39.00
38325;DHT22;24126;52.672;13.622;2023-04-03T08:51:12;12.40;38.40
38325;DHT22;24126;52.672;13.622;2023-04-03T08:53:42;12.50;37.40
38325;DHT22;24126;52.672;13.622;2023-04-03T08:56:11;12.50;37.20
38325;DHT22;24126;52.672;13.622;2023-04-03T09:01:21;12.60;37.50
38325;DHT22;24126;52.672;13.622;2023-04-03T09:03:49;12.70;37.70
38325;DHT22;24126;52.672;13.622;2023-04-03T09:06:20;12.90;37.70
38325;DHT22;24126;52.672;13.622;2023-04-03T09:09:12;13.10;37.20
38325;DHT22;24126;52.672;13.622;2023-04-03T09:11:54;13.10;37.40
38325;DHT22;24126;52.672;13.622;2023-04-03T09:14:30;12.90;37.20
38325;DHT22;24126;52.672;13.622;2023-04-03T09:20:07;12.40;37.90
38325;DHT22;24126;52.672;13.622;2023-04-03T09:22:38;12.20;38.60
38325;DHT22;24126;52.672;13.622;2023-04-03T09:27:38;12.00;38.90
38325;DHT22;24126;52.672;13.622;2023-04-03T09:30:06;12.00;38.80
38325;DHT22;24126;52.672;13.622;2023-04-03T09:32:35;12.00;38.80
38325;DHT22;24126;52.672;13.622;2023-04-03T09:35:03;11.70;39.10
38325;DHT22;24126;52.672;13.622;2023-04-03T09:37:38;11.50;38.90
38325;DHT22;24126;52.672;13.622;2023-04-03T09:40:11;11.30;39.60
38325;DHT22;24126;52.672;13.622;2023-04-03T09:42:54;11.30;40.00
38325;DHT22;24126;52.672;13.622;2023-04-03T09:45:23;11.30;39.90
38325;DHT22;24126;52.672;13.622;2023-04-03T09:48:03;11.40;40.10
38325;DHT22;24126;52.672;13.622;2023-04-03T09:50:30;11.40;39.20
38325;DHT22;24126;52.672;13.622;2023-04-03T09:52:57;11.30;39.20
38325;DHT22;24126;52.672;13.622;2023-04-03T09:55:25;11.30;39.30
38325;DHT22;24126;52.672;13.622;2023-04-03T09:58:04;11.40;39.50
38325;DHT22;24126;52.672;13.622;2023-04-03T10:00:37;11.50;39.60
38325;DHT22;24126;52.672;13.622;2023-04-03T10:03:09;11.60;39.40
38325;DHT22;24126;52.672;13.622;2023-04-03T10:05:48;11.50;39.00
38325;DHT22;24126;52.672;13.622;2023-04-03T10:10:45;11.60;38.90
38325;DHT22;24126;52.672;13.622;2023-04-03T10:13:13;11.60;39.30
38325;DHT22;24126;52.672;13.622;2023-04-03T10:15:43;11.60;38.90
38325;DHT22;24126;52.672;13.622;2023-04-03T10:18:25;11.60;38.50
38325;DHT22;24126;52.672;13.622;2023-04-03T10:20:54;11.60;38.70
38325;DHT22;24126;52.672;13.622;2023-04-03T10:23:24;11.50;39.80
38325;DHT22;24126;52.672;13.622;2023-04-03T10:28:30;11.50;39.30
38325;DHT22;24126;52.672;13.622;2023-04-03T10:33:39;11.40;39.00
38325;DHT22;24126;52.672;13.622;2023-04-03T10:36:25;11.30;39.50
38325;DHT22;24126;52.672;13.622;2023-04-03T10:39:02;11.20;39.60
38325;DHT22;24126;52.672;13.622;2023-04-03T10:46:44;11.30;40.30
38325;DHT22;24126;52.672;13.622;2023-04-03T10:49:18;11.30;40.50
38325;DHT22;24126;52.672;13.622;2023-04-03T10:51:56;11.30;39.90
38325;DHT22;24126;52.672;13.622;2023-04-03T10:54:36;11.10;40.30
38325;DHT22;24126;52.672;13.622;2023-04-03T10:57:05;11.00;40.60
38325;DHT22;24126;52.672;13.622;2023-04-03T10:59:35;11.00;41.20
38325;DHT22;24126;52.672;13.622;2023-04-03T11:04:31;11.00;40.90
38325;DHT22;24126;52.672;13.622;2023-04-03T11:07:11;11.00;41.20
38325;DHT22;24126;52.672;13.622;2023-04-03T11:09:42;11.10;41.10
38325;DHT22;24126;52.672;13.622;2023-04-03T11:12:18;11.10;41.10
38325;DHT22;24126;52.672;13.622;2023-04-03T11:14:47;11.10;41.20
38325;DHT22;24126;52.672;13.622;2023-04-03T11:17:22;11.20;41.20
38325;DHT22;24126;52.672;13.622;2023-04-03T11:20:06;11.20;41.20
38325;DHT22;24126;52.672;13.622;2023-04-03T11:22:39;11.20;41.50
38325;DHT22;24126;52.672;13.622;2023-04-03T11:27:40;11.30;40.90
38325;DHT22;24126;52.672;13.622;2023-04-03T11:30:09;11.30;40.80
38325;DHT22;24126;52.672;13.622;2023-04-03T11:32:51;11.30;40.90
38325;DHT22;24126;52.672;13.622;2023-04-03T11:35:19;11.30;41.20
38325;DHT22;24126;52.672;13.622;2023-04-03T11:37:50;11.30;40.80
38325;DHT22;24126;52.672;13.622;2023-04-03T11:43:07;11.20;40.50
38325;DHT22;24126;52.672;13.622;2023-04-03T11:45:34;11.30;41.30
38325;DHT22;24126;52.672;13.622;2023-04-03T11:48:49;11.30;40.90
38325;DHT22;24126;52.672;13.622;2023-04-03T11:50:49;11.40;41.00
38325;DHT22;24126;52.672;13.622;2023-04-03T11:58:12;11.80;40.90
38325;DHT22;24126;52.672;13.622;2023-04-03T12:05:50;12.10;40.90
38325;DHT22;24126;52.672;13.622;2023-04-03T12:13:34;12.20;39.30
38325;DHT22;24126;52.672;13.622;2023-04-03T12:16:02;12.00;40.00
38325;DHT22;24126;52.672;13.622;2023-04-03T12:21:06;11.80;40.00
38325;DHT22;24126;52.672;13.622;2023-04-03T12:23:34;11.90;40.40
38325;DHT22;24126;52.672;13.622;2023-04-03T12:26:04;11.90;40.40
38325;DHT22;24126;52.672;13.622;2023-04-03T12:28:36;11.90;40.40
38325;DHT22;24126;52.672;13.622;2023-04-03T12:31:04;11.90;40.40
38325;DHT22;24126;52.672;13.622;2023-04-03T12:33:52;11.90;40.20
38325;DHT22;24126;52.672;13.622;2023-04-03T12:36:30;11.80;41.00
38325;DHT22;24126;52.672;13.622;2023-04-03T12:39:05;11.70;40.50
38325;DHT22;24126;52.672;13.622;2023-04-03T12:41:44;11.60;40.40
38325;DHT22;24126;52.672;13.622;2023-04-03T12:44:39;11.50;40.80
38325;DHT22;24126;52.672;13.622;2023-04-03T12:47:08;11.50;41.00
38325;DHT22;24126;52.672;13.622;2023-04-03T12:49:43;11.50;40.90
38325;DHT22;24126;52.672;13.622;2023-04-03T12:52:19;11.60;40.70
38325;DHT22;24126;52.672;13.622;2023-04-03T12:54:46;11.60;40.60
38325;DHT22;24126;52.672;13.622;2023-04-03T12:57:18;11.60;40.90
38325;DHT22;24126;52.672;13.622;2023-04-03T12:59:46;11.60;41.50
38325;DHT22;24126;52.672;13.622;2023-04-03T13:02:47;11.60;40.70
38325;DHT22;24126;52.672;13.622;2023-04-03T13:05:07;11.60;41.10
38325;DHT22;24126;52.672;13.622;2023-04-03T13:07:36;11.60;41.00
38325;DHT22;24126;52.672;13.622;2023-04-03T13:12:48;11.50;41.10
38325;DHT22;24126;52.672;13.622;2023-04-03T13:15:20;11.50;41.40
38325;DHT22;24126;52.672;13.622;2023-04-03T13:17:48;11.50;41.50
38325;DHT22;24126;52.672;13.622;2023-04-03T13:20:19;11.50;41.80
38325;DHT22;24126;52.672;13.622;2023-04-03T13:22:49;11.50;42.40
38325;DHT22;24126;52.672;13.622;2023-04-03T13:25:19;11.50;42.60
38325;DHT22;24126;52.672;13.622;2023-04-03T13:27:46;11.50;42.40
38325;DHT22;24126;52.672;13.622;2023-04-03T13:32:47;11.60;42.80
38325;DHT22;24126;52.672;13.622;2023-04-03T13:35:27;11.60;42.50
38325;DHT22;24126;52.672;13.622;2023-04-03T13:38:03;11.60;42.40
38325;DHT22;24126;52.672;13.622;2023-04-03T13:40:31;11.60;42.60
38325;DHT22;24126;52.672;13.622;2023-04-03T13:43:03;11.60;42.60
38325;DHT22;24126;52.672;13.622;2023-04-03T13:45:31;11.60;43.00
38325;DHT22;24126;52.672;13.622;2023-04-03T13:51:01;11.60;43.30
38325;DHT22;24126;52.672;13.622;2023-04-03T13:53:29;11.60;43.20
38325;DHT22;24126;52.672;13.622;2023-04-03T13:56:40;11.60;43.20
38325;DHT22;24126;52.672;13.622;2023-04-03T13:59:02;11.60;43.40
38325;DHT22;24126;52.672;13.622;2023-04-03T14:01:33;11.70;43.40
38325;DHT22;24126;52.672;13.622;2023-04-03T14:04:01;11.70;43.50
38325;DHT22;24126;52.672;13.622;2023-04-03T14:06:36;11.80;43.50
38325;DHT22;24126;52.672;13.622;2023-04-03T14:09:03;11.80;43.40
38325;DHT22;24126;52.672;13.622;2023-04-03T14:11:30;11.70;43.40
38325;DHT22;24126;52.672;13.622;2023-04-03T14:13:58;11.70;43.30
38325;DHT22;24126;52.672;13.622;2023-04-03T14:16:27;11.60;43.30
38325;DHT22;24126;52.672;13.622;2023-04-03T14:18:56;11.50;43.50
38325;DHT22;24126;52.672;13.622;2023-04-03T14:21:23;11.40;43.60
38325;DHT22;24126;52.672;13.622;2023-04-03T14:23:50;11.30;43.90
38325;DHT22;24126;52.672;13.622;2023-04-03T14:26:19;11.20;44.00
38325;DHT22;24126;52.672;13.622;2023-04-03T14:28:47;11.10;44.30
38325;DHT22;24126;52.672;13.622;2023-04-03T14:31:15;11.10;44.20
38325;DHT22;24126;52.672;13.622;2023-04-03T14:33:43;11.00;44.70
38325;DHT22;24126;52.672;13.622;2023-04-03T14:36:12;11.00;44.80
38325;DHT22;24126;52.672;13.622;2023-04-03T14:38:39;10.90;44.80
38325;DHT22;24126;52.672;13.622;2023-04-03T14:41:06;10.80;44.90
38325;DHT22;24126;52.672;13.622;2023-04-03T14:43:33;10.80;45.00
38325;DHT22;24126;52.672;13.622;2023-04-03T14:46:01;10.80;45.20
38325;DHT22;24126;52.672;13.622;2023-04-03T14:48:28;10.80;45.50
38325;DHT22;24126;52.672;13.622;2023-04-03T14:50:56;10.80;45.60
38325;DHT22;24126;52.672;13.622;2023-04-03T14:53:23;10.80;45.70
38325;DHT22;24126;52.672;13.622;2023-04-03T14:55:51;10.70;45.20
38325;DHT22;24126;52.672;13.622;2023-04-03T14:58:20;10.70;45.40
38325;DHT22;24126;52.672;13.622;2023-04-03T15:00:47;10.70;46.10
38325;DHT22;24126;52.672;13.622;2023-04-03T15:03:18;10.70;45.60
38325;DHT22;24126;52.672;13.622;2023-04-03T15:05:46;10.70;45.70
38325;DHT22;24126;52.672;13.622;2023-04-03T15:08:23;10.70;45.80
38325;DHT22;24126;52.672;13.622;2023-04-03T15:10:51;10.70;45.90
38325;DHT22;24126;52.672;13.622;2023-04-03T15:13:21;10.80;45.60
38325;DHT22;24126;52.672;13.622;2023-04-03T15:15:49;10.80;45.40
38325;DHT22;24126;52.672;13.622;2023-04-03T15:18:18;10.80;45.60
38325;DHT22;24126;52.672;13.622;2023-04-03T15:20:45;10.80;45.70
38325;DHT22;24126;52.672;13.622;2023-04-03T15:23:14;10.70;45.60
38325;DHT22;24126;52.672;13.622;2023-04-03T15:25:42;10.70;45.60
38325;DHT22;24126;52.672;13.622;2023-04-03T15:28:22;10.70;45.30
38325;DHT22;24126;52.672;13.622;2023-04-03T15:30:49;10.70;45.30
38325;DHT22;24126;52.672;13.622;2023-04-03T15:33:17;10.70;45.10
38325;DHT22;24126;52.672;13.622;2023-04-03T15:35:44;10.80;45.50
38325;DHT22;24126;52.672;13.622;2023-04-03T15:38:11;10.80;45.70
38325;DHT22;24126;52.672;13.622;2023-04-03T15:40:38;10.90;45.80
38325;DHT22;24126;52.672;13.622;2023-04-03T15:43:06;10.90;45.60
38325;DHT22;24126;52.672;13.622;2023-04-03T15:45:33;11.00;45.50
38325;DHT22;24126;52.672;13.622;2023-04-03T15:48:02;11.00;44.80
38325;DHT22;24126;52.672;13.622;2023-04-03T15:50:29;11.00;45.20
38325;DHT22;24126;52.672;13.622;2023-04-03T15:52:56;11.00;45.20
38325;DHT22;24126;52.672;13.622;2023-04-03T15:55:24;10.90;45.10
38325;DHT22;24126;52.672;13.622;2023-04-03T15:57:52;10.80;45.70
38325;DHT22;24126;52.672;13.622;2023-04-03T16:00:19;10.80;46.10
38325;DHT22;24126;52.672;13.622;2023-04-03T16:02:47;10.70;46.10
38325;DHT22;24126;52.672;13.622;2023-04-03T16:05:15;10.70;46.40
38325;DHT22;24126;52.672;13.622;2023-04-03T16:07:43;10.70;46.60
38325;DHT22;24126;52.672;13.622;2023-04-03T16:10:10;10.60;46.20
38325;DHT22;24126;52.672;13.622;2023-04-03T16:12:38;10.60;46.40
38325;DHT22;24126;52.672;13.622;2023-04-03T16:15:05;10.60;46.70
38325;DHT22;24126;52.672;13.622;2023-04-03T16:17:33;10.50;46.50
38325;DHT22;24126;52.672;13.622;2023-04-03T16:20:00;10.50;46.70
38325;DHT22;24126;52.672;13.622;2023-04-03T16:22:29;10.50;46.70
38325;DHT22;24126;52.672;13.622;2023-04-03T16:24:56;10.50;46.70
38325;DHT22;24126;52.672;13.622;2023-04-03T16:27:23;10.50;46.70
38325;DHT22;24126;52.672;13.622;2023-04-03T16:29:53;10.50;46.90
38325;DHT22;24126;52.672;13.622;2023-04-03T16:32:21;10.50;47.00
38325;DHT22;24126;52.672;13.622;2023-04-03T16:34:48;10.50;47.00